Time;durP1;ratioP1;P1;durP2;ratioP2;P2;SDS_P1;SDS_P2;PMS_P1;PMS_P2;Temp;Humidity;BMP_temperature;BMP_pressure;BME280_temperature;BME280_humidity;BME280_pressure;Samples;Min_cycle;Max_cycle;Signal;HPM_P1;HPM_P2
2022/11/11 00:01:22;;;;;;;34.13;17.77;;;;;;;19.97;57.44;99265.28;4782535;30;20766;-61
2022/11/11 00:04:28;;;;;;;33.17;18.73;;;;;;;19.99;57.09;99273.22;4764974;30;20066;-60
2022/11/11 00:07:28;;;;;;;34.55;18.55;;;;;;;20.00;56.81;99270.19;4764694;30;20090;-60
2022/11/11 00:10:36;;;;;;;36.58;19.05;;;;;;;19.98;56.55;99271.56;4765272;30;20071;-59
2022/11/11 00:13:38;;;;;;;34.85;18.48;;;;;;;19.86;57.08;99278.00;4784278;29;20063;-60
2022/11/11 00:26:51;;;;;;;33.35;18.35;;;;;;;19.88;57.83;99283.19;4782388;29;20067;-60
2022/11/11 00:29:59;;;;;;;33.67;17.27;;;;;;;19.90;58.47;99279.13;4782753;30;20070;-60
2022/11/11 00:33:07;;;;;;;39.58;18.67;;;;;;;19.85;58.58;99278.25;4780879;30;20112;-60
2022/11/11 00:36:14;;;;;;;35.28;16.90;;;;;;;19.87;58.75;99276.09;4782083;29;20051;-60
2022/11/11 00:39:21;;;;;;;31.88;16.95;;;;;;;19.89;57.75;99273.94;4782266;29;20123;-60
2022/11/11 00:42:34;;;;;;;35.88;17.88;;;;;;;19.79;59.17;99269.22;4783120;29;20136;-60
2022/11/11 00:45:42;;;;;;;39.13;19.42;;;;;;;19.73;59.24;99268.38;4782571;30;20540;-60
2022/11/11 00:52:10;;;;;;;33.33;17.60;;;;;;;19.60;59.90;99276.94;4779770;30;20047;-61
2022/11/11 00:55:18;;;;;;;30.42;18.40;;;;;;;19.59;59.90;99280.78;4781902;30;20066;-60
2022/11/11 00:58:21;;;;;;;37.40;18.90;;;;;;;19.53;60.21;99276.38;4781762;30;20496;-60
2022/11/11 01:01:28;;;;;;;34.95;19.00;;;;;;;19.47;60.24;99277.38;4780453;30;20087;-59
2022/11/11 01:04:28;;;;;;;33.53;19.13;;;;;;;19.46;60.75;99278.47;4765810;30;20068;-61
2022/11/11 01:07:35;;;;;;;30.25;17.83;;;;;;;19.35;60.79;99269.38;4781670;30;20139;-61
2022/11/11 01:10:48;;;;;;;36.30;19.25;;;;;;;19.38;62.02;99285.22;4770362;30;20615;-61
2022/11/11 01:14:02;;;;;;;32.63;18.33;;;;;;;19.32;61.80;99289.78;4782191;29;20655;-60
2022/11/11 01:17:06;;;;;;;33.67;18.38;;;;;;;19.29;62.27;99287.56;4774744;30;20223;-60
2022/11/11 01:20:14;;;;;;;36.15;19.63;;;;;;;19.29;61.55;99292.19;4780811;30;20228;-61
2022/11/11 01:23:15;;;;;;;38.47;19.40;;;;;;;19.26;61.40;99293.53;4781105;30;20392;-60
2022/11/11 01:26:29;;;;;;;38.72;19.70;;;;;;;19.23;61.95;99299.47;4781474;29;20085;-60
2022/11/11 01:29:30;;;;;;;34.58;19.52;;;;;;;19.21;62.53;99292.66;4781530;29;20070;-60
2022/11/11 01:32:37;;;;;;;38.05;20.23;;;;;;;19.24;62.00;99301.13;4781147;29;20059;-61
2022/11/11 01:35:38;;;;;;;43.13;21.55;;;;;;;19.18;62.20;99296.69;4781745;30;20063;-61
2022/11/11 01:38:46;;;;;;;42.53;20.88;;;;;;;19.13;62.26;99291.22;4781135;29;20061;-61
2022/11/11 01:41:53;;;;;;;37.92;21.63;;;;;;;19.17;62.45;99292.34;4765226;29;20061;-61
2022/11/11 01:45:01;;;;;;;45.35;22.75;;;;;;;19.16;62.67;99290.69;4751047;30;20538;-60
2022/11/11 01:51:51;;;;;;;49.30;24.67;;;;;;;19.17;63.24;99290.44;4761880;30;20098;-61
2022/11/11 01:55:05;;;;;;;53.75;27.90;;;;;;;19.17;62.84;99295.88;4745527;30;20060;-60
2022/11/11 01:58:15;;;;;;;50.17;26.73;;;;;;;19.21;62.61;99298.91;4745413;30;20416;-62
2022/11/11 02:01:23;;;;;;;53.72;27.38;;;;;;;19.27;66.90;99316.13;4761549;30;20070;-61
2022/11/11 02:07:51;;;;;;;58.80;27.38;;;;;;;19.32;64.39;99322.44;4770066;30;20361;-60
2022/11/11 02:11:00;;;;;;;52.83;26.02;;;;;;;19.35;63.17;99321.91;4767430;30;20089;-59
2022/11/11 02:17:26;;;;;;;62.53;29.35;;;;;;;19.46;64.56;99325.56;4765881;30;20506;-59
2022/11/11 02:20:38;;;;;;;63.05;30.90;;;;;;;19.55;63.36;99321.28;4757127;30;20060;-59
2022/11/11 02:24:08;;;;;;;68.78;30.85;;;;;;;19.78;65.31;99326.72;4750274;30;20059;-60
2022/11/11 02:27:20;;;;;;;62.10;31.05;;;;;;;19.77;65.50;99325.06;4766248;30;20436;-60
2022/11/11 02:30:27;;;;;;;56.05;31.38;;;;;;;19.79;63.19;99333.78;4766472;30;20077;-60
2022/11/11 02:33:27;;;;;;;70.95;34.42;;;;;;;19.91;63.40;99331.69;4766121;30;20619;-60
2022/11/11 02:36:37;;;;;;;70.40;34.60;;;;;;;19.96;63.55;99334.47;4766372;30;20059;-60
2022/11/11 02:39:40;;;;;;;67.65;37.85;;;;;;;19.99;61.39;99339.41;4760283;30;20560;-60
2022/11/11 02:43:03;;;;;;;64.38;33.53;;;;;;;20.15;60.21;99343.88;4775425;29;20055;-60
2022/11/11 02:46:12;;;;;;;65.57;32.47;;;;;;;20.23;61.92;99355.38;4779045;29;20043;-61
2022/11/11 02:49:13;;;;;;;60.75;31.05;;;;;;;20.33;59.58;99353.56;4782765;29;20412;-60
2022/11/11 02:52:20;;;;;;;66.07;31.13;;;;;;;20.49;61.63;99353.66;4787828;29;20058;-60
2022/11/11 02:55:28;;;;;;;57.53;27.60;;;;;;;20.39;60.32;99357.13;4788324;29;20070;-60
2022/11/11 02:58:36;;;;;;;52.08;26.42;;;;;;;20.66;61.02;99365.22;4783794;30;20487;-60
2022/11/11 03:01:37;;;;;;;53.08;26.30;;;;;;;20.81;60.77;99372.69;4783647;30;20055;-59
2022/11/11 03:04:44;;;;;;;49.10;26.77;;;;;;;21.00;60.22;99380.38;4783308;30;20748;-60
2022/11/11 03:07:52;;;;;;;52.63;26.13;;;;;;;21.23;60.45;99374.50;4777356;30;20059;-61
2022/11/11 03:10:59;;;;;;;57.42;25.40;;;;;;;21.11;58.77;99387.53;4781613;29;20070;-60
2022/11/11 03:14:07;;;;;;;49.17;25.38;;;;;;;21.61;58.82;99386.09;4783859;30;20158;-60
2022/11/11 03:23:57;;;;;;;49.15;21.20;;;;;;;21.82;53.24;99402.50;4782817;29;20055;-60
2022/11/11 03:26:57;;;;;;;49.20;20.55;;;;;;;22.06;52.13;99409.06;4783373;30;20063;-60
2022/11/11 03:30:05;;;;;;;41.40;20.65;;;;;;;22.41;54.68;99404.75;4782545;30;20427;-60
2022/11/11 03:33:18;;;;;;;46.72;20.55;;;;;;;22.64;52.74;99405.22;4777104;30;20059;-59
2022/11/11 03:38:14;;;;;;;53.67;20.52;;;;;;;22.88;51.32;99419.94;4781635;30;20200;-60
2022/11/11 03:39:44;;;;;;;36.17;19.88;;;;;;;23.04;50.29;99415.31;4778710;29;20074;-60
2022/11/11 03:42:58;;;;;;;40.90;20.30;;;;;;;23.65;51.16;99424.31;4783263;29;20497;-59
2022/11/11 03:45:59;;;;;;;41.45;19.48;;;;;;;23.80;46.87;99426.19;4783174;29;20091;-60
2022/11/11 03:49:06;;;;;;;37.30;19.60;;;;;;;24.13;47.68;99429.22;4783357;30;20066;-61
2022/11/11 03:52:13;;;;;;;38.33;21.15;;;;;;;24.45;45.48;99430.63;4787103;29;20057;-62
2022/11/11 03:55:14;;;;;;;38.17;19.80;;;;;;;24.49;45.89;99426.19;4797496;29;20082;-59
2022/11/11 03:58:22;;;;;;;39.33;20.50;;;;;;;24.91;45.19;99438.41;4781147;30;20059;-58
2022/11/11 04:11:42;;;;;;;32.33;15.82;;;;;;;26.17;42.04;99422.47;4781109;30;20495;-60
2022/11/11 04:18:01;;;;;;;27.90;16.80;;;;;;;26.89;41.02;99421.25;4780054;29;20074;-59
2022/11/11 04:29:27;;;;;;;44.38;19.15;;;;;;;27.18;40.54;99422.88;4781899;30;20059;-61
2022/11/11 04:31:14;;;;;;;29.15;17.38;;;;;;;27.78;41.03;99416.34;4780543;30;20060;-60
2022/11/11 04:34:21;;;;;;;37.38;20.80;;;;;;;27.64;40.13;99416.41;4781593;30;20054;-59
2022/11/11 04:37:24;;;;;;;34.95;19.65;;;;;;;27.76;38.99;99424.94;4764051;30;20605;-60
2022/11/11 04:47:28;;;;;;;49.63;22.33;;;;;;;27.01;38.96;99443.59;4763642;30;20071;-60
2022/11/11 04:50:30;;;;;;;40.85;22.73;;;;;;;27.04;39.44;99443.00;4763773;30;20066;-61
2022/11/11 04:53:39;;;;;;;48.05;21.98;;;;;;;27.59;39.74;99452.34;4795851;29;20472;-61
2022/11/11 04:56:53;;;;;;;40.15;22.60;;;;;;;27.85;38.33;99453.41;4781645;29;20204;-61
2022/11/11 05:00:01;;;;;;;37.33;21.55;;;;;;;27.57;39.21;99457.38;4780405;29;20051;-61
2022/11/11 05:03:14;;;;;;;41.45;19.77;;;;;;;27.79;39.09;99440.88;4779070;30;20083;-62
2022/11/11 05:09:58;;;;;;;35.60;17.83;;;;;;;27.90;38.92;99456.09;4732246;30;20084;-62
2022/11/11 05:23:20;;;;;;;28.23;16.40;;;;;;;26.99;39.61;99432.06;4778940;29;20043;-61
2022/11/11 05:26:21;;;;;;;28.73;14.77;;;;;;;27.72;39.05;99433.03;4780319;29;20135;-58
2022/11/11 05:29:30;;;;;;;26.80;13.65;;;;;;;28.24;37.69;99427.16;4778983;30;20150;-61
2022/11/11 05:32:31;;;;;;;26.30;12.32;;;;;;;27.80;36.40;99422.38;4778814;29;20465;-61
2022/11/11 05:35:38;;;;;;;29.38;13.82;;;;;;;27.08;38.38;99421.97;4781874;30;20059;-64
2022/11/11 05:38:38;;;;;;;24.30;12.18;;;;;;;27.05;37.05;99410.75;4771756;30;20071;-63
2022/11/11 05:41:45;;;;;;;20.40;12.25;;;;;;;27.67;39.50;99407.53;4783976;30;20070;-60
2022/11/11 05:44:46;;;;;;;30.83;13.60;;;;;;;27.73;36.96;99409.03;4769175;30;20499;-62
2022/11/11 05:47:54;;;;;;;26.85;14.32;;;;;;;27.64;36.72;99397.91;4783181;30;20055;-60
2022/11/11 05:50:56;;;;;;;20.77;12.27;;;;;;;27.67;37.72;99393.75;4782708;30;20098;-60
2022/11/11 05:54:03;;;;;;;27.45;13.70;;;;;;;27.33;36.81;99389.53;4781085;30;20062;-60
2022/11/11 05:57:03;;;;;;;30.00;13.20;;;;;;;27.58;36.91;99393.66;4771939;30;20060;-59
2022/11/11 06:07:53;;;;;;;22.60;12.75;;;;;;;27.71;37.28;99376.25;4963404;24;20071;-59
2022/11/11 06:11:00;;;;;;;23.92;12.18;;;;;;;27.49;37.00;99374.25;4778349;29;20066;-60
2022/11/11 06:14:01;;;;;;;24.33;11.52;;;;;;;27.96;37.63;99370.47;4775258;30;20055;-63
2022/11/11 06:17:09;;;;;;;26.30;13.13;;;;;;;27.92;37.19;99370.28;4775366;30;20056;-62
2022/11/11 06:20:17;;;;;;;23.23;12.20;;;;;;;28.03;36.60;99360.63;4780426;30;20059;-60
2022/11/11 06:23:18;;;;;;;26.55;12.68;;;;;;;27.87;37.66;99364.84;4763065;29;20480;-57
2022/11/11 06:26:25;;;;;;;24.33;12.35;;;;;;;27.84;36.40;99357.19;4774994;30;20056;-56
2022/11/11 06:29:25;;;;;;;23.27;12.68;;;;;;;28.14;36.97;99349.31;4777439;30;20055;-59
2022/11/11 06:32:33;;;;;;;19.13;11.40;;;;;;;27.45;35.90;99342.13;4778095;29;20055;-60
2022/11/11 06:35:44;;;;;;;28.35;11.73;;;;;;;28.07;37.58;99333.19;4780425;30;20190;-60
2022/11/11 06:38:44;;;;;;;;;;;;;;;28.93;38.16;99342.22;4768006;30;20056;-60
2022/11/11 06:41:51;;;;;;;23.95;11.73;;;;;;;28.54;35.67;99330.88;4788150;29;19926;-57
2022/11/11 06:45:05;;;;;;;20.58;11.23;;;;;;;28.07;34.72;99328.50;4754205;30;20142;-58
2022/11/11 06:48:12;;;;;;;23.90;11.27;;;;;;;28.39;34.67;99322.97;4772924;30;20082;-55
2022/11/11 06:51:15;;;;;;;20.40;10.13;;;;;;;28.02;32.58;99319.53;4781219;30;20736;-55
2022/11/11 06:54:22;;;;;;;21.42;11.00;;;;;;;27.80;32.57;99307.38;4770707;30;20063;-57
2022/11/11 06:57:29;;;;;;;23.40;11.70;;;;;;;27.70;34.30;99307.59;4778773;30;20602;-55
2022/11/11 07:00:38;;;;;;;21.50;10.38;;;;;;;27.81;33.29;99297.94;4780987;30;20069;-61
2022/11/11 07:03:40;;;;;;;24.00;10.57;;;;;;;28.09;33.00;99297.84;4780866;29;20067;-62
2022/11/11 07:06:47;;;;;;;20.40;10.57;;;;;;;28.23;33.23;99293.03;4775789;29;20076;-61
2022/11/11 07:09:47;;;;;;;19.50;10.68;;;;;;;28.25;34.42;99289.97;4771634;30;20159;-60
2022/11/11 07:12:54;;;;;;;21.45;11.88;;;;;;;27.90;35.24;99293.34;4766571;30;20541;-62
2022/11/11 07:15:54;;;;;;;22.60;11.40;;;;;;;28.15;35.28;99279.22;4785242;29;20070;-61
2022/11/11 07:19:02;;;;;;;23.30;11.35;;;;;;;28.50;34.84;99280.16;4770872;30;20062;-62
2022/11/11 07:22:02;;;;;;;22.20;10.75;;;;;;;28.98;34.47;99284.03;4778316;30;20071;-61
2022/11/11 07:25:09;;;;;;;23.83;11.45;;;;;;;28.34;34.61;99276.19;4771688;30;20142;-66
2022/11/11 07:28:16;;;;;;;24.80;12.00;;;;;;;28.33;33.95;99269.03;4767527;30;20787;-62
2022/11/11 07:31:23;;;;;;;23.40;11.02;;;;;;;28.39;34.25;99270.53;4769629;30;20599;-63
2022/11/11 07:34:30;;;;;;;22.55;11.02;;;;;;;28.58;34.36;99265.59;4775230;30;20065;-63
2022/11/11 07:37:37;;;;;;;22.27;9.80;;;;;;;28.62;34.65;99268.53;4780107;30;20074;-63
2022/11/11 07:40:44;;;;;;;18.20;10.05;;;;;;;28.33;34.02;99263.53;4778847;30;20059;-66
2022/11/11 07:43:52;;;;;;;21.17;9.75;;;;;;;28.35;33.03;99255.75;4780123;30;20142;-60
2022/11/11 07:46:52;;;;;;;20.52;9.45;;;;;;;28.29;32.53;99255.06;4774458;29;20061;-62
2022/11/11 07:50:00;;;;;;;23.35;10.40;;;;;;;28.24;33.67;99250.50;4775765;30;20525;-62
2022/11/11 07:53:07;;;;;;;16.70;9.32;;;;;;;28.10;33.08;99249.78;4763501;30;20148;-57
2022/11/11 07:56:07;;;;;;;26.42;9.52;;;;;;;28.16;32.98;99240.22;4776121;30;20116;-60
2022/11/11 07:59:14;;;;;;;21.80;10.25;;;;;;;27.97;33.65;99245.97;4779513;29;20131;-63
2022/11/11 08:02:15;;;;;;;22.40;9.90;;;;;;;28.26;33.73;99248.25;4780959;29;20047;-67
2022/11/11 08:05:23;;;;;;;16.98;9.82;;;;;;;28.35;33.18;99244.69;4775686;30;20065;-63
2022/11/11 08:08:26;;;;;;;20.40;10.85;;;;;;;28.41;32.15;99240.66;4778288;30;20063;-62
2022/11/11 08:15:00;;;;;;;19.88;9.05;;;;;;;28.35;32.77;99233.66;4779266;29;20058;-62
2022/11/11 08:18:07;;;;;;;21.92;9.15;;;;;;;28.33;32.77;99227.66;4773489;30;20451;-60
2022/11/11 08:21:15;;;;;;;18.15;8.82;;;;;;;27.94;32.80;99216.28;4780366;30;20410;-63
2022/11/11 08:24:17;;;;;;;19.15;8.95;;;;;;;28.43;31.92;99222.66;4779785;30;20076;-62
2022/11/11 08:27:45;;;;;;;13.40;7.28;;;;;;;28.61;32.52;99218.00;4777955;30;20819;-62
2022/11/11 08:30:47;;;;;;;10.95;7.43;;;;;;;28.21;30.40;99214.47;4778097;30;20070;-62
2022/11/11 08:34:01;;;;;;;17.92;8.32;;;;;;;28.36;31.75;99214.03;4780089;30;20733;-61
2022/11/11 08:37:01;;;;;;;13.95;7.95;;;;;;;28.31;29.91;99214.16;4775512;30;20458;-62
2022/11/11 08:40:09;;;;;;;12.80;7.90;;;;;;;28.43;30.51;99202.50;4771887;29;20603;-61
2022/11/11 08:43:09;;;;;;;12.43;7.53;;;;;;;28.93;30.85;99199.38;4748689;30;20055;-62
2022/11/11 08:46:17;;;;;;;13.52;7.45;;;;;;;28.59;30.51;99189.09;4778161;30;20376;-62
2022/11/11 08:49:18;;;;;;;11.05;7.45;;;;;;;28.48;30.96;99188.56;4779044;30;20051;-63
2022/11/11 08:52:25;;;;;;;12.38;7.95;;;;;;;28.11;31.26;99185.19;4778340;30;20065;-63
2022/11/11 08:55:25;;;;;;;16.02;8.43;;;;;;;28.06;30.72;99183.38;4779111;29;20185;-62
2022/11/11 08:58:33;;;;;;;16.05;9.07;;;;;;;28.35;30.84;99187.53;4770434;30;20774;-63
2022/11/11 09:01:34;;;;;;;19.08;9.93;;;;;;;28.26;30.68;99182.00;4777617;30;20074;-63
2022/11/11 09:04:42;;;;;;;21.45;9.63;;;;;;;28.29;31.50;99178.59;4770429;30;20055;-63
2022/11/11 09:07:51;;;;;;;25.08;10.20;;;;;;;28.20;31.57;99180.50;4771509;30;20063;-63
2022/11/11 09:11:05;;;;;;;20.75;11.07;;;;;;;27.84;30.73;99170.47;4747109;30;20087;-63
2022/11/11 09:13:59;;;;;;;19.13;11.27;;;;;;;27.87;32.66;99169.81;4760490;30;20071;-62
2022/11/11 09:17:07;;;;;;;19.42;11.18;;;;;;;28.22;32.06;99167.22;4757851;30;20171;-62
2022/11/11 09:20:15;;;;;;;25.25;12.40;;;;;;;28.30;31.67;99163.66;4759109;30;20654;-62
2022/11/11 09:23:23;;;;;;;31.42;12.93;;;;;;;28.23;32.31;99160.56;4753017;29;20133;-62
2022/11/11 09:26:30;;;;;;;23.38;12.70;;;;;;;28.31;31.97;99164.47;4758116;30;20093;-64
2022/11/11 09:29:30;;;;;;;25.50;12.45;;;;;;;28.12;32.63;99162.78;4758088;30;20497;-62
2022/11/11 09:32:38;;;;;;;24.45;12.23;;;;;;;28.11;31.17;99163.13;4756980;30;20141;-63
2022/11/11 09:35:39;;;;;;;30.42;13.07;;;;;;;28.30;29.87;99152.63;4758794;30;20469;-62
2022/11/11 09:38:47;;;;;;;18.75;10.65;;;;;;;27.87;30.41;99158.78;4758569;30;20084;-61
2022/11/11 09:41:48;;;;;;;25.20;10.32;;;;;;;28.28;34.41;99151.34;4758749;30;20156;-63
2022/11/11 09:45:12;;;;;;;23.33;13.57;;;;;;;28.08;33.76;99148.00;4759548;30;20063;-63
2022/11/11 09:48:47;;;;;;;24.73;11.00;;;;;;;27.82;29.79;99150.66;4753418;29;20170;-60
2022/11/11 09:52:04;;;;;;;18.33;10.27;;;;;;;28.14;32.72;99145.91;4739079;30;20125;-60
2022/11/11 09:55:42;;;;;;;19.45;10.35;;;;;;;27.75;31.35;99139.25;4754135;29;20050;-62
2022/11/11 09:59:09;;;;;;;17.10;10.63;;;;;;;28.08;31.07;99139.72;4731214;30;20077;-60
2022/11/11 10:02:48;;;;;;;22.25;11.05;;;;;;;28.23;34.51;99143.19;4756663;29;20083;-62
2022/11/11 10:06:13;;;;;;;28.27;11.18;;;;;;;28.04;32.75;99135.19;4750398;30;20456;-64
2022/11/11 10:09:35;;;;;;;18.73;11.27;;;;;;;28.04;33.02;99132.44;4754939;30;20127;-62
2022/11/11 10:13:00;;;;;;;20.15;10.63;;;;;;;27.96;32.68;99130.47;4776498;30;20456;-63
2022/11/11 10:16:09;;;;;;;22.08;10.30;;;;;;;27.75;31.85;99130.19;4771737;30;20075;-62
2022/11/11 10:19:22;;;;;;;16.05;9.32;;;;;;;27.82;33.27;99128.59;4776064;30;20066;-62
2022/11/11 10:22:40;;;;;;;19.17;9.15;;;;;;;27.69;30.18;99133.06;4772066;29;20059;-59
2022/11/11 10:25:59;;;;;;;21.55;10.63;;;;;;;27.85;33.17;99132.66;4780037;30;20058;-63
2022/11/11 10:29:02;;;;;;;20.95;9.63;;;;;;;27.85;33.47;99133.44;4769406;30;20090;-61
2022/11/11 10:32:19;;;;;;;14.48;9.23;;;;;;;27.81;33.90;99132.47;4771428;30;20439;-61
2022/11/11 10:35:36;;;;;;;19.63;10.40;;;;;;;27.81;33.58;99128.91;4779692;30;20097;-61
2022/11/11 10:38:59;;;;;;;26.50;11.50;;;;;;;27.48;32.00;99129.25;4756244;30;20067;-61
2022/11/11 10:42:23;;;;;;;22.85;11.43;;;;;;;27.63;34.86;99136.28;4767859;30;20051;-65
2022/11/11 10:45:49;;;;;;;35.50;12.48;;;;;;;27.58;32.96;99130.91;4779846;30;20566;-66
2022/11/11 10:49:19;;;;;;;21.63;12.20;;;;;;;27.36;33.50;99129.81;4781093;29;20502;-64
2022/11/11 10:52:31;;;;;;;24.45;11.88;;;;;;;27.47;34.53;99130.38;4757478;30;20071;-63
2022/11/11 10:56:05;;;;;;;22.90;11.75;;;;;;;27.41;35.26;99134.38;4780925;30;20066;-62
2022/11/11 10:59:11;;;;;;;28.85;12.10;;;;;;;27.35;34.76;99130.94;4781009;30;20086;-67
2022/11/11 11:02:27;;;;;;;24.13;13.32;;;;;;;27.30;36.18;99134.63;4780468;30;20070;-63
2022/11/11 11:06:07;;;;;;;33.13;13.60;;;;;;;27.38;33.90;99135.84;4777479;30;20055;-62
2022/11/11 11:09:49;;;;;;;30.55;12.93;;;;;;;27.27;33.83;99132.53;4741110;30;20070;-64
2022/11/11 11:13:06;;;;;;;29.65;13.07;;;;;;;27.08;34.88;99129.13;4768650;30;20742;-63
2022/11/11 11:16:31;;;;;;;31.13;12.68;;;;;;;26.95;37.40;99128.06;4779059;29;20048;-64
2022/11/11 11:19:38;;;;;;;26.05;13.27;;;;;;;27.03;35.97;99135.56;4774336;30;20720;-62
2022/11/11 11:23:00;;;;;;;28.88;13.93;;;;;;;26.95;37.09;99139.06;4780961;30;20139;-63
2022/11/11 11:26:14;;;;;;;33.83;14.02;;;;;;;26.79;36.41;99133.13;4775710;30;20071;-64
2022/11/11 11:29:32;;;;;;;31.15;13.88;;;;;;;26.70;38.47;99135.78;4776447;30;20170;-63
2022/11/11 11:32:42;;;;;;;29.83;14.18;;;;;;;26.63;37.74;99131.84;4767446;30;20062;-63
2022/11/11 11:35:50;;;;;;;29.37;13.90;;;;;;;26.51;38.81;99133.16;4780068;30;20097;-64
2022/11/11 11:38:59;;;;;;;32.72;14.07;;;;;;;26.28;40.69;99140.53;4772393;30;20291;-65
2022/11/11 11:42:06;;;;;;;30.08;13.77;;;;;;;26.15;41.42;99139.44;4779865;29;20185;-63
2022/11/11 11:45:29;;;;;;;38.88;16.00;;;;;;;26.03;40.20;99139.16;4779397;30;20144;-62
2022/11/11 11:48:58;;;;;;;34.45;15.43;;;;;;;25.86;42.77;99142.47;4768032;30;20059;-63
2022/11/11 11:52:06;;;;;;;36.20;13.90;;;;;;;25.72;44.10;99141.63;4779010;30;20066;-64
2022/11/11 11:55:24;;;;;;;37.25;14.88;;;;;;;25.44;44.76;99140.78;4769712;30;20153;-65
2022/11/11 11:58:46;;;;;;;31.50;15.15;;;;;;;25.33;43.49;99134.66;4775583;30;20070;-65
2022/11/11 12:02:02;;;;;;;39.67;17.05;;;;;;;25.10;45.03;99142.69;4778855;30;20055;-67
2022/11/11 12:05:32;;;;;;;45.90;17.25;;;;;;;25.06;43.86;99144.41;4779998;30;20433;-67
2022/11/11 12:08:51;;;;;;;38.85;16.58;;;;;;;24.91;45.56;99150.13;4778101;29;20066;-67
2022/11/11 12:12:30;;;;;;;34.13;15.65;;;;;;;24.81;44.07;99153.84;4780495;30;20174;-65
2022/11/11 12:15:38;;;;;;;53.80;18.55;;;;;;;24.61;44.47;99152.22;4764053;29;20073;-66
2022/11/11 12:19:11;;;;;;;46.47;17.27;;;;;;;24.59;45.73;99148.94;4765913;30;20147;-66
2022/11/11 12:22:38;;;;;;;38.67;16.98;;;;;;;24.57;46.25;99151.16;4781130;30;20566;-64
2022/11/11 12:25:53;;;;;;;37.38;16.33;;;;;;;24.46;44.84;99144.16;4780264;30;20150;-65
2022/11/11 12:29:37;;;;;;;43.05;17.52;;;;;;;24.41;44.18;99151.34;4775780;30;20078;-64
2022/11/11 12:33:00;;;;;;;38.63;15.40;;;;;;;24.31;44.01;99159.72;4759499;30;20680;-64
2022/11/11 12:36:42;;;;;;;45.40;16.77;;;;;;;24.24;43.91;99156.50;4777034;29;20162;-66
2022/11/11 12:40:06;;;;;;;35.92;16.17;;;;;;;24.15;43.96;99161.00;4762299;30;20059;-63
2022/11/11 12:43:18;;;;;;;43.58;16.10;;;;;;;24.07;45.58;99165.22;4781089;30;20185;-62
2022/11/11 12:46:40;;;;;;;34.10;14.93;;;;;;;24.00;46.37;99170.25;4766770;30;20062;-62
2022/11/11 12:49:54;;;;;;;35.50;15.98;;;;;;;23.86;46.30;99175.59;4775426;29;20059;-62
2022/11/11 12:53:27;;;;;;;32.03;15.07;;;;;;;23.85;45.39;99179.47;4776762;30;20066;-62
2022/11/11 12:56:52;;;;;;;51.30;16.85;;;;;;;23.79;46.84;99180.63;4758598;30;20055;-64
2022/11/11 13:00:08;;;;;;;38.53;17.55;;;;;;;23.70;46.92;99188.63;4765108;30;20483;-65
2022/11/11 13:03:53;;;;;;;45.78;17.30;;;;;;;23.72;46.47;99191.88;4771831;29;20066;-68
2022/11/11 13:07:07;;;;;;;34.65;16.38;;;;;;;23.62;47.39;99200.22;4747837;30;20120;-64
2022/11/11 13:10:25;;;;;;;42.83;16.58;;;;;;;23.56;47.61;99202.19;4777723;30;20067;-62
2022/11/11 13:13:53;;;;;;;48.78;17.75;;;;;;;23.52;48.99;99205.75;4772578;30;20194;-64
2022/11/11 13:16:56;;;;;;;42.85;18.95;;;;;;;23.41;48.89;99202.31;4776459;30;20149;-62
2022/11/11 13:20:13;;;;;;;43.58;18.40;;;;;;;23.34;49.62;99204.56;4771932;30;20302;-63
2022/11/11 13:23:19;;;;;;;51.33;17.80;;;;;;;23.23;49.03;99212.88;4778211;30;20065;-63
2022/11/11 13:26:46;;;;;;;47.72;17.50;;;;;;;23.23;49.47;99217.50;4772610;29;20075;-65
2022/11/11 13:30:13;;;;;;;53.53;17.83;;;;;;;23.25;49.56;99224.34;4766066;30;20158;-63
2022/11/11 13:33:48;;;;;;;66.65;19.90;;;;;;;23.21;50.43;99223.25;4777848;29;20593;-64
2022/11/11 13:37:01;;;;;;;62.10;18.95;;;;;;;23.08;50.13;99229.38;4762509;30;20225;-65
2022/11/11 13:40:31;;;;;;;51.75;17.70;;;;;;;23.04;50.60;99223.66;4766448;30;20067;-64
2022/11/11 13:43:49;;;;;;;54.47;19.10;;;;;;;23.06;50.71;99229.69;4763913;30;20078;-64
2022/11/11 13:47:01;;;;;;;;;;;;;;;23.10;50.98;99227.19;4763640;30;20062;-67
2022/11/11 13:50:19;;;;;;;41.15;18.80;;;;;;;23.01;52.23;99229.66;4770250;30;20273;-65
2022/11/11 13:53:40;;;;;;;61.47;19.25;;;;;;;22.90;52.36;99232.75;4773322;30;20216;-64
2022/11/11 13:56:51;;;;;;;55.95;18.50;;;;;;;22.87;52.85;99243.19;4779980;29;20203;-64
2022/11/11 14:00:04;;;;;;;53.38;19.55;;;;;;;22.86;52.90;99236.06;4782997;30;20059;-64
2022/11/11 14:03:36;;;;;;;49.97;21.05;;;;;;;22.88;52.36;99239.31;4782536;30;20365;-63
2022/11/11 14:06:30;;;;;;;;;;;;;;;22.98;51.24;99232.97;4773566;30;20098;-63
2022/11/11 14:10:01;;;;;;;69.22;22.20;;;;;;;23.00;51.03;99240.91;4780994;29;20317;-65
2022/11/11 14:13:34;;;;;;;76.72;23.83;;;;;;;22.94;51.53;99245.59;4779776;30;20167;-64
2022/11/11 14:16:41;;;;;;;62.03;22.35;;;;;;;22.87;52.01;99243.19;4768846;30;20503;-63
2022/11/11 14:19:41;;;;;;;61.75;24.13;;;;;;;22.89;50.36;99253.84;4781922;30;20066;-62
2022/11/11 14:22:48;;;;;;;71.30;27.05;;;;;;;22.88;51.32;99247.53;4781309;30;20070;-64
2022/11/11 14:26:18;;;;;;;70.68;28.13;;;;;;;23.02;51.13;99255.97;4780876;30;20091;-60
2022/11/11 14:29:19;;;;;;;71.93;29.83;;;;;;;23.00;50.48;99252.66;4780040;30;20555;-62
2022/11/11 14:32:35;;;;;;;70.57;30.35;;;;;;;22.87;50.68;99248.66;4782583;29;20774;-60
2022/11/11 14:35:58;;;;;;;69.00;30.55;;;;;;;22.93;49.74;99248.59;4778294;30;20092;-61
2022/11/11 14:39:50;;;;;;;83.07;31.73;;;;;;;22.87;50.38;99256.84;4773739;29;20624;-63
2022/11/11 14:42:59;;;;;;;76.72;32.63;;;;;;;22.84;51.80;99260.16;4723168;30;20061;-62
2022/11/11 14:46:05;;;;;;;72.65;30.55;;;;;;;22.71;50.53;99255.28;4771766;30;20074;-63
2022/11/11 14:49:43;;;;;;;70.47;32.55;;;;;;;22.78;51.38;99260.47;4772569;29;20082;-62
2022/11/11 14:52:48;;;;;;;78.80;33.35;;;;;;;22.73;50.46;99264.03;4766604;30;20062;-63
2022/11/11 14:55:56;;;;;;;75.25;35.13;;;;;;;22.74;51.03;99265.69;4777813;30;20070;-61
2022/11/11 14:59:13;;;;;;;72.15;33.58;;;;;;;22.74;51.61;99267.56;4762403;30;20051;-62
2022/11/11 15:02:24;;;;;;;73.60;33.05;;;;;;;22.70;51.91;99267.34;4774194;30;20070;-61
2022/11/11 15:05:58;;;;;;;75.72;33.15;;;;;;;22.79;51.22;99267.56;4765191;30;20086;-61
2022/11/11 15:09:13;;;;;;;81.20;35.63;;;;;;;22.79;51.00;99268.38;4762277;30;20056;-61
2022/11/11 15:13:10;;;;;;;81.82;34.15;;;;;;;22.77;51.77;99270.56;4770519;30;20248;-61
2022/11/11 15:16:47;;;;;;;83.63;35.08;;;;;;;22.64;52.41;99271.19;4747311;30;20059;-62
2022/11/11 15:20:25;;;;;;;104.15;34.42;;;;;;;22.64;51.61;99274.75;4775354;30;20179;-62
2022/11/11 15:23:52;;;;;;;77.65;36.00;;;;;;;22.62;50.83;99278.84;4780185;30;20051;-62
2022/11/11 15:27:31;;;;;;;77.57;34.80;;;;;;;22.55;51.45;99278.34;4771817;30;20074;-62
2022/11/11 15:30:47;;;;;;;82.95;37.75;;;;;;;22.48;50.72;99279.44;4769077;30;20059;-62
2022/11/11 15:34:11;;;;;;;74.35;37.38;;;;;;;22.42;50.85;99283.28;4780746;30;20456;-62
2022/11/11 15:37:21;;;;;;;90.35;37.38;;;;;;;22.30;51.76;99282.81;4772563;30;20066;-62
2022/11/11 15:40:27;;;;;;;82.23;37.80;;;;;;;22.31;51.20;99289.06;4769473;30;20182;-62
2022/11/11 15:43:39;;;;;;;89.97;39.28;;;;;;;22.26;52.91;99281.69;4764784;30;20805;-62
2022/11/11 15:46:41;;;;;;;;;;;;;;;22.29;50.93;99281.16;4780707;30;20066;-62
2022/11/11 15:49:49;;;;;;;85.53;37.22;;;;;;;22.12;52.07;99283.34;4772406;30;20067;-61
2022/11/11 15:53:04;;;;;;;86.72;41.65;;;;;;;22.09;52.59;99288.28;4773817;30;20066;-61
2022/11/11 15:56:31;;;;;;;91.15;39.88;;;;;;;22.02;53.28;99292.38;4762256;30;20705;-62
2022/11/11 15:59:40;;;;;;;80.22;39.05;;;;;;;21.84;53.62;99286.38;4773056;29;20086;-62
2022/11/11 16:02:46;;;;;;;89.85;40.55;;;;;;;21.91;53.19;99280.63;4774216;30;20489;-63
2022/11/11 16:05:49;;;;;;;88.63;41.95;;;;;;;21.78;54.85;99279.28;4772212;30;20322;-63
2022/11/11 16:09:03;;;;;;;88.22;41.97;;;;;;;21.78;54.84;99287.50;4763093;30;20062;-62